Time;durP1;ratioP1;P1;durP2;ratioP2;P2;SDS_P1;SDS_P2;PMS_P1;PMS_P2;Temp;Humidity;BMP_temperature;BMP_pressure;BME280_temperature;BME280_humidity;BME280_pressure;Samples;Min_cycle;Max_cycle;Signal;HPM_P1;HPM_P2
2024/01/08 00:00:13;;;;;;;14.95;10.02;;;1.20;99.90;;;;;;5032964;28;20078;-73
2024/01/08 00:02:39;;;;;;;13.30;8.35;;;1.20;99.90;;;;;;5036861;28;20112;-74
2024/01/08 00:05:05;;;;;;;14.93;9.18;;;1.20;99.90;;;;;;5039845;28;20104;-71
2024/01/08 00:07:30;;;;;;;14.80;9.95;;;1.20;99.90;;;;;;5037638;28;20437;-74
2024/01/08 00:09:57;;;;;;;17.58;9.60;;;1.20;99.90;;;;;;5037888;28;20426;-74
2024/01/08 00:12:22;;;;;;;17.92;9.90;;;1.20;99.90;;;;;;5033014;28;20072;-73
2024/01/08 00:14:49;;;;;;;15.10;9.43;;;1.20;99.90;;;;;;5031628;28;20506;-72
2024/01/08 00:17:14;;;;;;;17.45;9.35;;;1.30;99.90;;;;;;5032423;28;22701;-74
2024/01/08 00:19:40;;;;;;;14.15;9.35;;;1.30;99.90;;;;;;5033556;28;20040;-74
2024/01/08 00:22:06;;;;;;;15.20;9.73;;;1.10;99.90;;;;;;5033225;28;20501;-74
2024/01/08 00:24:31;;;;;;;15.25;8.82;;;1.20;99.90;;;;;;5035971;28;20494;-74
2024/01/08 00:26:57;;;;;;;14.25;8.50;;;1.20;99.90;;;;;;5031059;28;20045;-74
2024/01/08 00:29:23;;;;;;;12.50;8.38;;;1.20;99.90;;;;;;5037124;28;20118;-75
2024/01/08 00:31:48;;;;;;;14.18;8.45;;;1.20;99.90;;;;;;5031661;28;20387;-73
2024/01/08 00:34:14;;;;;;;13.10;8.40;;;1.20;99.90;;;;;;5037350;28;20482;-73
2024/01/08 00:36:41;;;;;;;14.00;8.82;;;1.10;99.90;;;;;;5036286;28;20029;-74
2024/01/08 00:39:09;;;;;;;13.15;9.43;;;1.10;99.90;;;;;;5035042;28;20037;-74
2024/01/08 00:41:35;;;;;;;13.55;8.73;;;1.10;99.90;;;;;;5030688;28;20052;-73
2024/01/08 00:44:01;;;;;;;14.63;9.95;;;1.10;99.90;;;;;;5031878;28;20044;-74
2024/01/08 00:46:26;;;;;;;12.27;8.23;;;1.10;99.90;;;;;;5032144;28;20038;-73
2024/01/08 00:48:52;;;;;;;14.40;9.00;;;1.00;99.90;;;;;;5035713;28;20482;-76
2024/01/08 00:51:18;;;;;;;14.27;10.05;;;1.00;99.90;;;;;;5032802;28;20070;-73
2024/01/08 00:53:44;;;;;;;14.38;9.80;;;1.10;99.90;;;;;;5031426;28;20036;-73
2024/01/08 00:56:09;;;;;;;15.15;9.68;;;1.10;99.90;;;;;;5034753;28;20037;-75
2024/01/08 00:58:36;;;;;;;16.45;10.45;;;1.10;99.90;;;;;;5035377;28;20028;-73
2024/01/08 01:01:03;;;;;;;15.10;9.30;;;1.00;99.90;;;;;;5035497;28;20075;-73
2024/01/08 01:03:29;;;;;;;13.27;8.77;;;1.00;99.90;;;;;;5033775;28;20032;-74
2024/01/08 01:05:55;;;;;;;15.13;8.45;;;1.00;99.90;;;;;;5034767;28;20040;-73
2024/01/08 01:08:21;;;;;;;14.23;8.70;;;0.80;99.90;;;;;;5033121;28;20082;-73
2024/01/08 01:10:47;;;;;;;13.57;8.63;;;1.00;99.90;;;;;;5031888;28;20029;-72
2024/01/08 01:13:13;;;;;;;13.50;8.65;;;0.90;99.90;;;;;;5031753;28;20764;-74
2024/01/08 01:15:39;;;;;;;14.75;9.13;;;0.90;99.90;;;;;;5036304;28;20033;-75
2024/01/08 01:18:05;;;;;;;15.45;9.15;;;0.90;99.90;;;;;;5038528;28;20036;-73
2024/01/08 01:20:30;;;;;;;13.07;8.45;;;0.90;99.90;;;;;;5029173;28;20045;-74
2024/01/08 01:22:56;;;;;;;13.05;8.93;;;0.90;99.90;;;;;;5035526;28;20028;-74
2024/01/08 01:25:21;;;;;;;12.75;8.23;;;1.00;99.90;;;;;;5034263;28;20386;-73
2024/01/08 01:27:47;;;;;;;13.77;9.52;;;0.90;99.90;;;;;;5033283;28;20454;-74
2024/01/08 01:30:13;;;;;;;11.88;9.48;;;0.80;99.90;;;;;;5034243;28;20425;-72
2024/01/08 01:32:39;;;;;;;13.55;9.90;;;0.80;99.90;;;;;;5034787;28;20049;-73
2024/01/08 01:35:06;;;;;;;13.93;9.20;;;0.90;99.90;;;;;;5035998;28;20375;-72
2024/01/08 01:37:31;;;;;;;12.43;8.57;;;0.90;99.90;;;;;;5038795;28;20351;-75
2024/01/08 01:39:57;;;;;;;14.35;9.90;;;0.90;99.90;;;;;;5036809;28;20041;-72
2024/01/08 01:42:23;;;;;;;14.85;10.15;;;0.80;99.90;;;;;;5036521;28;20025;-73
2024/01/08 01:44:48;;;;;;;13.55;10.00;;;0.80;99.90;;;;;;5040143;28;20025;-74
2024/01/08 01:47:15;;;;;;;16.02;9.52;;;0.90;99.90;;;;;;5042134;28;20096;-73
2024/01/08 01:49:41;;;;;;;12.05;9.20;;;1.10;99.90;;;;;;5039187;28;20549;-73
2024/01/08 01:52:08;;;;;;;14.48;9.63;;;0.90;99.90;;;;;;5039383;28;20124;-75
2024/01/08 01:54:35;;;;;;;12.52;9.63;;;1.00;99.90;;;;;;5043536;28;20026;-74
2024/01/08 01:57:02;;;;;;;15.55;10.77;;;0.90;99.90;;;;;;5050461;28;20039;-72
2024/01/08 01:59:28;;;;;;;12.50;9.55;;;0.90;99.90;;;;;;5043394;28;20040;-74
2024/01/08 02:01:56;;;;;;;12.70;8.90;;;1.00;99.90;;;;;;5039591;28;20025;-74
2024/01/08 02:04:25;;;;;;;12.27;9.65;;;1.00;99.90;;;;;;5042787;28;20029;-74
2024/01/08 02:06:51;;;;;;;11.90;8.57;;;1.00;99.90;;;;;;5054891;28;20351;-75
2024/01/08 02:09:18;;;;;;;12.95;9.32;;;1.00;99.90;;;;;;5041612;28;20079;-74
2024/01/08 02:11:44;;;;;;;13.18;8.98;;;1.10;99.90;;;;;;5042711;28;20513;-73
2024/01/08 02:14:11;;;;;;;11.05;8.13;;;1.10;99.90;;;;;;5043445;28;20064;-74
2024/01/08 02:16:36;;;;;;;10.38;7.53;;;1.10;99.90;;;;;;5041321;28;20083;-73
2024/01/08 02:19:03;;;;;;;10.75;7.80;;;1.10;99.90;;;;;;5043920;28;20083;-75
2024/01/08 02:21:28;;;;;;;11.07;7.70;;;1.00;99.90;;;;;;5051648;28;20038;-74
2024/01/08 02:23:54;;;;;;;10.98;8.05;;;0.90;99.90;;;;;;5042845;28;20014;-76
2024/01/08 02:26:21;;;;;;;9.90;7.43;;;1.00;99.90;;;;;;5047713;28;20076;-74
2024/01/08 02:28:47;;;;;;;12.18;8.02;;;0.80;99.90;;;;;;5047773;28;20045;-75
2024/01/08 02:31:12;;;;;;;13.15;8.40;;;0.80;99.90;;;;;;5056206;28;20521;-75
2024/01/08 02:33:38;;;;;;;10.63;7.50;;;0.90;99.90;;;;;;5051985;28;20035;-75
2024/01/08 02:36:04;;;;;;;9.70;7.35;;;0.80;99.90;;;;;;5045487;28;20038;-76
2024/01/08 02:38:30;;;;;;;12.15;7.72;;;0.90;99.90;;;;;;5045458;28;20040;-72
2024/01/08 02:40:57;;;;;;;7.90;6.72;;;1.00;99.90;;;;;;5041844;28;20086;-75
2024/01/08 02:43:24;;;;;;;8.88;7.30;;;1.00;99.90;;;;;;5045710;28;20029;-73
2024/01/08 02:45:49;;;;;;;9.10;6.97;;;1.00;99.90;;;;;;5040807;28;20540;-75
2024/01/08 02:48:15;;;;;;;8.98;6.88;;;0.80;99.90;;;;;;5047887;28;20028;-76
2024/01/08 02:50:41;;;;;;;12.05;7.57;;;0.90;99.90;;;;;;5040093;28;20029;-74
2024/01/08 02:53:07;;;;;;;8.27;6.22;;;0.90;99.90;;;;;;5044658;28;20048;-76
2024/01/08 02:55:32;;;;;;;8.40;6.70;;;0.80;99.90;;;;;;5045238;28;20041;-76
2024/01/08 02:58:02;;;;;;;7.38;5.90;;;0.80;99.90;;;;;;5044263;28;20066;-75
2024/01/08 03:00:27;;;;;;;9.85;6.25;;;0.80;99.90;;;;;;5039388;28;20029;-75
2024/01/08 03:02:53;;;;;;;11.18;6.60;;;0.80;99.90;;;;;;5043691;28;20537;-76
2024/01/08 03:05:19;;;;;;;8.93;7.22;;;0.80;99.90;;;;;;5048977;28;20492;-76
2024/01/08 03:07:44;;;;;;;10.77;6.97;;;0.70;99.90;;;;;;5043436;28;20433;-74
2024/01/08 03:10:10;;;;;;;11.88;8.27;;;0.60;99.90;;;;;;5042685;28;20488;-74
2024/01/08 03:12:36;;;;;;;13.48;9.40;;;0.70;99.90;;;;;;5045902;28;20417;-76
2024/01/08 03:15:01;;;;;;;13.02;9.32;;;0.60;99.90;;;;;;5041161;28;20523;-76
2024/01/08 03:17:27;;;;;;;15.45;9.50;;;0.60;99.90;;;;;;5040966;28;20053;-77
2024/01/08 03:19:53;;;;;;;13.68;9.98;;;0.50;99.90;;;;;;5044753;28;20525;-77
2024/01/08 03:22:18;;;;;;;15.50;9.30;;;0.50;99.90;;;;;;5046540;28;20105;-77
2024/01/08 03:24:44;;;;;;;14.00;9.38;;;0.40;99.90;;;;;;5037664;28;20025;-76
2024/01/08 03:27:10;;;;;;;12.68;8.75;;;0.30;99.90;;;;;;5042111;28;20048;-77
2024/01/08 03:29:36;;;;;;;13.18;8.88;;;0.50;99.90;;;;;;5052599;28;20024;-76
2024/01/08 03:32:03;;;;;;;14.25;8.80;;;0.40;99.90;;;;;;5045148;28;20027;-76
2024/01/08 03:34:28;;;;;;;12.25;8.77;;;0.50;99.90;;;;;;5046263;28;20028;-77
2024/01/08 03:36:54;;;;;;;11.77;8.52;;;0.40;99.90;;;;;;5045780;28;20665;-76
2024/01/08 03:39:20;;;;;;;11.65;8.68;;;0.40;99.90;;;;;;5041247;28;20373;-75
2024/01/08 03:41:46;;;;;;;14.13;7.65;;;0.40;99.90;;;;;;5040504;28;20040;-75
2024/01/08 03:44:13;;;;;;;12.05;8.57;;;0.40;99.90;;;;;;5040252;28;20029;-76
2024/01/08 03:46:39;;;;;;;9.98;7.13;;;0.40;99.90;;;;;;5042823;28;20025;-76
2024/01/08 03:49:06;;;;;;;11.95;8.15;;;0.40;99.90;;;;;;5045055;28;20033;-75
2024/01/08 03:51:32;;;;;;;12.65;8.77;;;0.30;99.90;;;;;;5048784;28;20040;-74
2024/01/08 03:53:58;;;;;;;11.48;7.72;;;0.50;99.90;;;;;;5044545;28;20502;-74
2024/01/08 03:56:24;;;;;;;11.43;7.95;;;0.40;99.90;;;;;;5042409;28;20040;-75
2024/01/08 03:58:49;;;;;;;13.75;8.15;;;0.50;99.90;;;;;;5040023;28;20025;-75
2024/01/08 04:01:15;;;;;;;11.30;7.93;;;0.50;99.90;;;;;;5044357;28;20059;-75
2024/01/08 04:03:41;;;;;;;12.95;8.55;;;0.50;99.90;;;;;;5042039;28;20049;-74
2024/01/08 04:06:07;;;;;;;12.07;7.45;;;0.50;99.90;;;;;;5040795;28;20032;-75
2024/01/08 04:08:33;;;;;;;11.63;7.85;;;0.50;99.90;;;;;;5043017;28;20449;-75
2024/01/08 04:10:59;;;;;;;13.20;8.27;;;0.60;99.90;;;;;;5044123;28;20071;-75
2024/01/08 04:13:24;;;;;;;12.40;8.35;;;0.60;99.90;;;;;;5039986;28;20036;-74
2024/01/08 04:15:50;;;;;;;12.45;7.75;;;0.60;99.90;;;;;;5040070;28;20044;-74
2024/01/08 04:18:17;;;;;;;11.98;7.45;;;0.60;99.90;;;;;;5041848;28;20402;-73
2024/01/08 04:20:42;;;;;;;11.70;7.38;;;0.60;99.90;;;;;;5044104;28;20563;-74
2024/01/08 04:23:08;;;;;;;11.77;6.85;;;0.50;99.90;;;;;;5039107;28;20053;-74
2024/01/08 04:25:34;;;;;;;10.43;7.13;;;0.50;99.90;;;;;;5043160;28;20074;-73
2024/01/08 04:28:00;;;;;;;10.80;6.90;;;0.40;99.90;;;;;;5042127;28;20116;-74
2024/01/08 04:30:25;;;;;;;10.77;7.05;;;0.50;99.90;;;;;;5044184;28;21372;-74
2024/01/08 04:32:52;;;;;;;11.57;7.00;;;0.50;99.90;;;;;;5042146;28;20021;-75
2024/01/08 04:35:18;;;;;;;12.00;6.93;;;0.50;99.90;;;;;;5035722;28;20323;-72
2024/01/08 04:37:43;;;;;;;9.40;7.03;;;0.60;99.90;;;;;;5042308;28;20476;-74
2024/01/08 04:40:10;;;;;;;13.30;7.80;;;0.70;99.90;;;;;;5043213;28;20030;-74
2024/01/08 04:42:36;;;;;;;10.48;7.45;;;0.70;99.90;;;;;;5041288;28;20041;-73
2024/01/08 04:45:02;;;;;;;10.65;7.47;;;0.80;99.90;;;;;;5045174;28;20040;-75
2024/01/08 04:47:27;;;;;;;11.77;7.15;;;0.70;99.90;;;;;;5038908;28;20101;-75
2024/01/08 04:49:53;;;;;;;9.90;6.93;;;0.60;99.90;;;;;;5045784;28;20641;-74
2024/01/08 04:52:18;;;;;;;10.10;6.90;;;0.60;99.90;;;;;;5042155;28;20470;-75
2024/01/08 04:54:45;;;;;;;10.40;7.45;;;0.60;99.90;;;;;;5046259;28;20426;-75
2024/01/08 04:57:10;;;;;;;13.35;7.05;;;0.70;99.90;;;;;;5052580;28;20059;-75
2024/01/08 04:59:42;;;;;;;10.75;7.35;;;0.60;99.90;;;;;;5044339;28;20417;-75
2024/01/08 05:02:11;;;;;;;8.98;6.47;;;0.70;99.90;;;;;;5043038;28;20578;-76
2024/01/08 05:04:37;;;;;;;9.82;7.28;;;0.60;99.90;;;;;;5040476;28;20053;-75
2024/01/08 05:07:03;;;;;;;12.95;7.57;;;0.60;99.90;;;;;;5041678;28;20456;-71
2024/01/08 05:09:29;;;;;;;11.95;7.75;;;0.60;99.90;;;;;;5047923;28;20509;-75
2024/01/08 05:11:55;;;;;;;13.80;7.20;;;0.70;99.90;;;;;;5050404;28;20108;-74
2024/01/08 05:14:21;;;;;;;13.73;7.22;;;0.70;99.90;;;;;;5041656;28;20017;-75
2024/01/08 05:16:47;;;;;;;12.27;7.60;;;0.60;99.90;;;;;;5048277;28;20077;-75
2024/01/08 05:19:12;;;;;;;10.45;7.28;;;0.60;99.90;;;;;;5048514;28;20363;-75
2024/01/08 05:21:38;;;;;;;10.40;7.50;;;0.50;99.90;;;;;;5044419;28;20095;-75
2024/01/08 05:24:05;;;;;;;12.18;7.20;;;0.60;99.90;;;;;;5055038;28;20037;-75
2024/01/08 05:26:30;;;;;;;13.95;8.02;;;0.60;99.90;;;;;;5044472;28;20031;-75
2024/01/08 05:28:56;;;;;;;13.63;8.45;;;0.70;99.90;;;;;;5046351;28;20017;-75
2024/01/08 05:31:22;;;;;;;13.35;7.55;;;0.70;99.90;;;;;;5048323;28;20359;-75
2024/01/08 05:33:49;;;;;;;14.07;8.63;;;0.70;99.90;;;;;;5042228;28;20045;-75
2024/01/08 05:36:15;;;;;;;12.68;8.48;;;0.60;99.90;;;;;;5042465;28;20024;-76
2024/01/08 05:38:41;;;;;;;12.40;7.80;;;0.60;99.90;;;;;;5044108;28;20078;-76
2024/01/08 05:41:07;;;;;;;13.55;8.52;;;0.70;99.90;;;;;;5045165;28;20029;-76
2024/01/08 05:43:37;;;;;;;11.45;7.47;;;0.60;99.90;;;;;;5043316;28;20104;-75
2024/01/08 05:46:07;;;;;;;13.25;8.10;;;0.70;99.90;;;;;;5044190;28;20053;-75
2024/01/08 05:48:39;;;;;;;13.68;8.85;;;0.60;99.90;;;;;;5052117;28;20509;-75
2024/01/08 05:51:06;;;;;;;13.55;8.35;;;0.50;99.90;;;;;;5051567;28;20059;-75
2024/01/08 05:53:32;;;;;;;14.02;8.43;;;0.50;99.90;;;;;;5049000;28;20029;-75
2024/01/08 05:55:58;;;;;;;14.80;9.10;;;0.50;99.90;;;;;;5042531;28;20375;-76
2024/01/08 05:58:24;;;;;;;13.50;8.57;;;0.60;99.90;;;;;;5047984;28;20074;-74
2024/01/08 06:00:51;;;;;;;12.05;7.90;;;0.70;99.90;;;;;;5044066;28;20167;-75
2024/01/08 06:03:17;;;;;;;13.57;8.02;;;0.60;99.90;;;;;;5045092;28;20486;-73
2024/01/08 06:05:43;;;;;;;15.63;8.35;;;0.60;99.90;;;;;;5039425;28;20082;-74
2024/01/08 06:08:08;;;;;;;13.10;8.10;;;0.70;99.90;;;;;;5046729;28;20030;-75
2024/01/08 06:10:34;;;;;;;13.32;7.82;;;0.70;99.90;;;;;;5046104;28;20024;-74
2024/01/08 06:13:00;;;;;;;12.25;8.27;;;0.70;99.90;;;;;;5043111;28;20024;-74
2024/01/08 06:15:26;;;;;;;13.85;8.00;;;0.60;99.90;;;;;;5042706;28;20124;-74
2024/01/08 06:17:52;;;;;;;13.02;8.52;;;0.50;99.90;;;;;;5045773;28;20032;-75
2024/01/08 06:20:17;;;;;;;15.23;8.43;;;0.50;99.90;;;;;;5042458;28;20473;-74
2024/01/08 06:22:43;;;;;;;14.60;8.85;;;0.60;99.90;;;;;;5039621;28;20110;-75
2024/01/08 06:25:09;;;;;;;14.48;9.20;;;0.70;99.90;;;;;;5043640;28;20393;-75
2024/01/08 06:27:34;;;;;;;13.27;8.20;;;0.60;99.90;;;;;;5046818;28;20029;-75
2024/01/08 06:30:00;;;;;;;17.27;8.90;;;0.60;99.90;;;;;;5044674;28;20081;-76
2024/01/08 06:32:26;;;;;;;13.90;8.80;;;0.70;99.90;;;;;;5049026;28;20037;-75
2024/01/08 06:34:52;;;;;;;13.52;8.88;;;0.60;99.90;;;;;;5045262;28;20053;-74
2024/01/08 06:37:18;;;;;;;17.23;9.00;;;0.40;99.90;;;;;;5046413;28;20073;-74
2024/01/08 06:39:43;;;;;;;12.98;8.48;;;0.50;99.90;;;;;;5047182;28;20029;-75
2024/01/08 06:42:09;;;;;;;16.15;9.38;;;0.50;99.90;;;;;;5046120;28;20425;-74
2024/01/08 06:44:35;;;;;;;16.08;9.45;;;0.50;99.90;;;;;;5046029;28;20033;-76
2024/01/08 06:47:00;;;;;;;13.60;8.95;;;0.50;99.90;;;;;;5050494;28;20032;-75
2024/01/08 06:49:27;;;;;;;14.88;9.40;;;0.60;99.90;;;;;;5044638;28;20825;-75
2024/01/08 06:51:52;;;;;;;14.93;8.65;;;0.50;99.90;;;;;;5043039;28;20032;-75
2024/01/08 06:54:18;;;;;;;19.60;9.55;;;0.60;99.90;;;;;;5041018;28;20497;-71
2024/01/08 06:56:44;;;;;;;19.65;10.45;;;0.60;99.90;;;;;;5043987;28;20401;-75
2024/01/08 06:59:09;;;;;;;23.45;9.90;;;0.60;99.90;;;;;;5046325;28;20025;-75
2024/01/08 07:01:35;;;;;;;18.42;11.20;;;0.70;99.90;;;;;;5051829;28;20029;-76
2024/01/08 07:04:01;;;;;;;18.35;10.73;;;0.60;99.90;;;;;;5049235;28;20060;-76
2024/01/08 07:06:26;;;;;;;17.42;10.50;;;0.60;99.90;;;;;;5039170;28;20034;-77
2024/01/08 07:08:52;;;;;;;17.08;10.13;;;0.70;99.90;;;;;;5043439;28;20029;-77
2024/01/08 07:11:23;;;;;;;17.80;10.38;;;0.60;99.90;;;;;;5048673;28;20573;-77
2024/01/08 07:13:49;;;;;;;15.18;9.68;;;0.50;99.90;;;;;;5045003;28;20500;-76
2024/01/08 07:16:15;;;;;;;14.40;10.13;;;0.50;99.90;;;;;;5043886;28;20121;-77
2024/01/08 07:18:41;;;;;;;21.05;11.05;;;0.50;99.90;;;;;;5046818;28;20108;-77
2024/01/08 07:21:07;;;;;;;21.05;11.23;;;0.60;99.90;;;;;;5047035;28;20503;-71
2024/01/08 07:23:35;;;;;;;21.90;11.88;;;0.60;99.90;;;;;;5042129;28;20028;-78
2024/01/08 07:26:01;;;;;;;22.95;11.40;;;0.50;99.90;;;;;;5045532;28;20033;-77
2024/01/08 07:28:28;;;;;;;17.48;10.80;;;0.40;99.90;;;;;;5039818;28;20032;-78
2024/01/08 07:30:54;;;;;;;18.70;10.77;;;0.50;99.90;;;;;;5047428;28;20016;-77
2024/01/08 07:33:21;;;;;;;17.98;11.18;;;0.50;99.90;;;;;;5044648;28;20029;-77
2024/01/08 07:35:47;;;;;;;18.52;11.05;;;0.70;99.90;;;;;;5042244;28;20034;-76
2024/01/08 07:38:13;;;;;;;22.45;11.48;;;0.60;99.90;;;;;;5042261;28;20056;-76
2024/01/08 07:40:39;;;;;;;18.73;11.52;;;0.70;99.90;;;;;;5040490;28;20072;-77
2024/01/08 07:43:04;;;;;;;18.42;10.55;;;0.70;99.90;;;;;;5040451;28;20033;-72
2024/01/08 07:45:30;;;;;;;19.58;11.77;;;0.60;99.90;;;;;;5044403;28;20045;-71
2024/01/08 07:47:59;;;;;;;19.35;11.38;;;0.70;99.90;;;;;;5042901;28;20060;-77
2024/01/08 07:50:25;;;;;;;19.08;11.73;;;0.60;99.90;;;;;;5044369;28;20120;-78
2024/01/08 07:52:51;;;;;;;22.23;12.30;;;0.70;99.90;;;;;;5049152;28;20056;-77
2024/01/08 07:55:17;;;;;;;20.42;12.80;;;0.70;99.90;;;;;;5051246;28;20037;-76
2024/01/08 07:57:43;;;;;;;19.95;12.00;;;0.60;99.90;;;;;;5041107;28;20029;-77
2024/01/08 08:00:11;;;;;;;20.52;11.43;;;0.70;99.90;;;;;;5042063;28;20037;-77
2024/01/08 08:02:38;;;;;;;22.08;12.35;;;0.70;99.90;;;;;;5045927;28;20040;-76
2024/01/08 08:05:04;;;;;;;21.27;11.80;;;0.60;99.90;;;;;;5048027;28;20020;-77
2024/01/08 08:07:30;;;;;;;21.92;12.70;;;0.70;99.90;;;;;;5039938;28;20406;-77
2024/01/08 08:09:56;;;;;;;23.35;13.07;;;0.80;99.90;;;;;;5045246;28;20033;-77
2024/01/08 08:12:21;;;;;;;26.92;13.45;;;0.80;99.90;;;;;;5043001;28;20036;-76
2024/01/08 08:14:48;;;;;;;20.85;13.38;;;0.90;99.90;;;;;;5043287;28;20033;-76
2024/01/08 08:17:14;;;;;;;21.33;12.70;;;0.80;99.90;;;;;;5044502;28;20029;-75
2024/01/08 08:19:44;;;;;;;22.40;12.60;;;0.80;99.90;;;;;;5039186;28;20100;-76
2024/01/08 08:22:13;;;;;;;17.67;11.32;;;0.70;99.90;;;;;;5048632;28;20063;-74
2024/01/08 08:24:42;;;;;;;20.27;13.43;;;0.70;99.90;;;;;;5037248;28;20135;-76
2024/01/08 08:27:11;;;;;;;20.35;11.88;;;0.80;99.90;;;;;;5042884;28;20052;-77
2024/01/08 08:29:47;;;;;;;22.73;13.13;;;0.70;99.90;;;;;;5047568;28;20389;-77
2024/01/08 08:32:13;;;;;;;20.17;12.00;;;0.70;99.90;;;;;;5040678;28;20382;-77
2024/01/08 08:34:39;;;;;;;18.95;12.90;;;0.80;99.90;;;;;;5041377;28;20130;-74
2024/01/08 08:37:08;;;;;;;21.10;12.80;;;0.80;99.90;;;;;;5039017;28;20049;-76
2024/01/08 08:39:34;;;;;;;22.08;13.10;;;0.90;99.90;;;;;;5040949;28;20025;-76
2024/01/08 08:42:00;;;;;;;24.25;12.85;;;0.80;99.90;;;;;;5045453;28;20036;-77
2024/01/08 08:44:26;;;;;;;23.10;13.25;;;0.90;99.90;;;;;;5041120;28;20030;-74
2024/01/08 08:46:52;;;;;;;23.42;13.50;;;0.80;99.90;;;;;;5041828;28;20036;-77
2024/01/08 08:49:18;;;;;;;26.23;14.07;;;0.80;99.90;;;;;;5040131;28;20025;-74
2024/01/08 08:51:44;;;;;;;20.90;12.88;;;0.70;99.90;;;;;;5043090;28;20100;-74
2024/01/08 08:54:09;;;;;;;20.80;12.20;;;0.70;99.90;;;;;;5040756;28;20492;-75
2024/01/08 08:56:36;;;;;;;20.67;12.85;;;0.70;99.90;;;;;;5042960;28;20120;-75
2024/01/08 08:59:02;;;;;;;22.65;13.27;;;0.80;99.90;;;;;;5038724;28;20085;-77
2024/01/08 09:01:28;;;;;;;19.73;12.90;;;0.80;99.90;;;;;;5041756;28;20029;-78
2024/01/08 09:03:54;;;;;;;23.90;12.70;;;0.90;99.90;;;;;;5042847;28;20476;-73
2024/01/08 09:06:23;;;;;;;20.35;12.90;;;0.80;99.90;;;;;;5041282;28;20099;-74
2024/01/08 09:08:50;;;;;;;20.15;12.02;;;0.90;99.90;;;;;;5041371;28;20037;-77
2024/01/08 09:11:16;;;;;;;22.90;13.77;;;0.90;99.90;;;;;;5037965;28;20477;-73
2024/01/08 09:13:42;;;;;;;23.00;12.93;;;0.90;99.90;;;;;;5047078;28;20028;-77
2024/01/08 09:16:12;;;;;;;21.15;12.65;;;0.80;99.90;;;;;;5045918;28;20041;-77
2024/01/08 09:18:38;;;;;;;23.23;13.23;;;0.90;99.90;;;;;;5043254;28;20078;-74
2024/01/08 09:21:10;;;;;;;22.27;13.20;;;0.90;99.90;;;;;;5040332;28;20069;-76
2024/01/08 09:23:37;;;;;;;22.50;13.32;;;0.80;99.90;;;;;;5041833;28;20070;-76
2024/01/08 09:26:04;;;;;;;21.83;13.35;;;0.90;99.90;;;;;;5039829;28;20091;-77
2024/01/08 09:28:30;;;;;;;19.67;11.65;;;0.90;99.90;;;;;;5035833;28;20112;-76
2024/01/08 09:30:57;;;;;;;18.13;12.00;;;0.90;99.90;;;;;;5042584;28;20256;-79
2024/01/08 09:33:22;;;;;;;21.85;12.82;;;0.90;99.90;;;;;;5040857;28;20040;-76
2024/01/08 09:35:48;;;;;;;21.08;12.90;;;0.90;99.90;;;;;;5043179;28;20038;-78
2024/01/08 09:38:17;;;;;;;18.50;12.02;;;1.10;99.90;;;;;;5046790;28;20021;-82
2024/01/08 09:40:42;;;;;;;21.27;11.80;;;1.10;99.90;;;;;;5047574;28;20479;-77
2024/01/08 09:43:09;;;;;;;22.60;12.65;;;1.10;99.90;;;;;;5042280;28;20025;-77
2024/01/08 09:45:48;;;;;;;18.55;12.05;;;1.00;99.90;;;;;;5041451;28;20033;-75
2024/01/08 09:48:14;;;;;;;22.00;12.48;;;1.10;99.90;;;;;;5034472;28;20068;-74
2024/01/08 09:50:39;;;;;;;22.30;12.38;;;1.00;99.90;;;;;;5038821;28;20527;-75
2024/01/08 09:53:05;;;;;;;19.92;12.32;;;1.20;99.90;;;;;;5044576;28;20021;-77
2024/01/08 09:55:33;;;;;;;20.70;12.07;;;1.20;99.90;;;;;;5044944;28;20036;-74
2024/01/08 09:58:01;;;;;;;18.10;10.68;;;1.20;99.90;;;;;;5043362;28;20561;-78
2024/01/08 10:00:26;;;;;;;17.80;10.98;;;1.20;99.90;;;;;;5044527;28;20028;-77
2024/01/08 10:02:56;;;;;;;18.85;10.80;;;1.30;99.90;;;;;;5048802;28;20074;-75
2024/01/08 10:05:22;;;;;;;19.50;10.90;;;1.20;99.90;;;;;;5044111;28;20033;-75
2024/01/08 10:07:49;;;;;;;14.93;9.93;;;1.20;99.90;;;;;;5052577;28;20032;-78
2024/01/08 10:10:15;;;;;;;16.92;10.82;;;1.20;99.90;;;;;;5043505;28;20064;-79
2024/01/08 10:12:42;;;;;;;17.75;11.18;;;1.10;99.90;;;;;;5045517;28;20064;-78
2024/01/08 10:15:10;;;;;;;18.58;11.95;;;1.20;99.90;;;;;;5044017;28;20115;-77
2024/01/08 10:17:36;;;;;;;19.02;12.18;;;1.20;99.90;;;;;;5045411;28;20028;-78
2024/01/08 10:20:07;;;;;;;19.58;12.27;;;1.10;99.90;;;;;;5050103;28;20029;-75
2024/01/08 10:22:33;;;;;;;20.08;12.07;;;1.20;99.90;;;;;;5047893;28;20107;-78
2024/01/08 10:25:02;;;;;;;19.58;13.05;;;1.30;99.90;;;;;;5042122;28;20137;-80
2024/01/08 10:27:30;;;;;;;19.13;11.45;;;1.30;99.90;;;;;;5046207;28;20032;-75
2024/01/08 10:29:56;;;;;;;18.27;11.85;;;1.20;99.90;;;;;;5049554;28;20540;-76
2024/01/08 10:32:25;;;;;;;17.15;10.02;;;1.10;99.90;;;;;;5043074;28;20033;-76
2024/01/08 10:34:51;;;;;;;18.80;12.73;;;1.00;99.90;;;;;;5049223;28;20112;-75
2024/01/08 10:37:20;;;;;;;21.25;11.93;;;0.90;99.90;;;;;;5048406;28;20076;-73
2024/01/08 10:39:49;;;;;;;16.92;11.15;;;1.00;99.90;;;;;;5045117;28;20037;-70
2024/01/08 10:42:15;;;;;;;16.48;11.38;;;0.90;99.90;;;;;;5039880;28;20025;-77
2024/01/08 10:44:40;;;;;;;17.17;11.40;;;0.90;99.90;;;;;;5046558;28;20466;-75
2024/01/08 10:47:09;;;;;;;13.32;9.38;;;1.00;99.90;;;;;;5040483;28;20086;-72
2024/01/08 10:49:36;;;;;;;12.57;8.85;;;0.80;99.90;;;;;;5045506;28;20133;-74
2024/01/08 10:52:27;;;;;;;14.98;9.52;;;0.70;99.90;;;;;;5043699;28;20045;-76
2024/01/08 10:55:00;;;;;;;15.88;10.07;;;0.70;99.90;;;;;;5048874;28;20029;-76
2024/01/08 10:57:36;;;;;;;12.60;9.27;;;0.90;99.90;;;;;;5049054;28;20490;-76
2024/01/08 11:00:06;;;;;;;15.40;9.10;;;0.80;99.90;;;;;;5040483;28;20021;-77
2024/01/08 11:02:37;;;;;;;12.13;7.75;;;0.90;99.90;;;;;;5044086;28;20021;-76
2024/01/08 11:05:05;;;;;;;13.60;8.60;;;0.90;99.90;;;;;;5044354;28;20465;-76
2024/01/08 11:07:35;;;;;;;14.52;9.00;;;1.00;99.90;;;;;;5041982;28;20025;-79
2024/01/08 11:10:06;;;;;;;12.38;8.30;;;1.00;99.90;;;;;;5044252;28;20022;-78
2024/01/08 11:12:35;;;;;;;12.45;8.35;;;1.00;99.90;;;;;;5043644;28;20025;-76
2024/01/08 11:15:02;;;;;;;11.63;7.93;;;1.10;99.90;;;;;;5041507;28;20564;-78
2024/01/08 11:17:28;;;;;;;11.88;8.43;;;1.00;99.90;;;;;;5048653;28;20025;-72
2024/01/08 11:19:55;;;;;;;10.32;7.40;;;0.90;99.90;;;;;;5044307;28;20032;-78
2024/01/08 11:22:21;;;;;;;12.73;7.40;;;1.00;99.90;;;;;;5042144;28;20048;-78
2024/01/08 11:24:50;;;;;;;11.48;7.32;;;0.90;99.90;;;;;;5045366;28;20017;-78
2024/01/08 11:27:16;;;;;;;12.20;7.32;;;1.00;99.90;;;;;;5041547;28;20182;-76
2024/01/08 11:29:45;;;;;;;10.07;7.13;;;1.10;99.90;;;;;;5043880;28;20022;-77
2024/01/08 11:33:00;;;;;;;8.15;5.75;;;1.00;99.90;;;;;;5046602;28;20025;-79
2024/01/08 11:35:28;;;;;;;9.70;6.07;;;0.90;99.90;;;;;;5032270;28;20055;-79
2024/01/08 11:38:25;;;;;;;8.50;5.63;;;0.90;99.90;;;;;;5042462;28;20034;-74
2024/01/08 11:40:51;;;;;;;8.60;5.18;;;1.00;99.90;;;;;;5047938;28;20051;-77
2024/01/08 11:43:18;;;;;;;7.30;4.95;;;0.90;99.90;;;;;;5044360;28;20113;-80
2024/01/08 11:45:44;;;;;;;11.18;5.65;;;0.80;99.90;;;;;;5043888;28;20107;-81
2024/01/08 11:48:10;;;;;;;7.53;5.25;;;1.00;99.90;;;;;;5044548;28;20044;-79
2024/01/08 11:50:39;;;;;;;8.70;5.53;;;1.20;99.90;;;;;;5040088;28;20069;-72
2024/01/08 11:53:08;;;;;;;7.47;4.90;;;1.30;99.90;;;;;;5046323;28;20102;-79
2024/01/08 11:55:34;;;;;;;6.45;4.35;;;1.20;99.90;;;;;;5041340;28;20073;-82
2024/01/08 11:58:00;;;;;;;6.35;3.72;;;1.20;99.90;;;;;;5045318;28;20036;-81
2024/01/08 12:00:29;;;;;;;5.50;3.92;;;1.10;99.90;;;;;;5041174;28;20041;-79
2024/01/08 12:03:02;;;;;;;4.28;3.47;;;1.00;99.90;;;;;;5044401;28;20028;-78
2024/01/08 12:05:28;;;;;;;7.03;4.00;;;1.00;99.90;;;;;;5047118;28;20041;-76
2024/01/08 12:07:54;;;;;;;7.75;4.47;;;1.00;99.90;;;;;;5042332;28;20076;-72
2024/01/08 12:10:20;;;;;;;4.65;3.72;;;1.20;99.90;;;;;;5046893;28;20515;-76
2024/01/08 12:12:46;;;;;;;9.18;4.50;;;1.20;99.90;;;;;;5042801;28;20030;-79
2024/01/08 12:15:12;;;;;;;7.35;3.95;;;1.30;99.90;;;;;;5046338;28;20378;-72
2024/01/08 12:17:38;;;;;;;6.45;4.30;;;1.50;99.90;;;;;;5042189;28;20473;-72
2024/01/08 12:20:05;;;;;;;7.30;4.55;;;1.60;99.90;;;;;;5044427;28;20029;-80
2024/01/08 12:22:31;;;;;;;8.90;4.85;;;1.50;99.90;;;;;;5039617;28;20033;-73
2024/01/08 12:24:58;;;;;;;7.20;4.68;;;1.50;99.90;;;;;;5043031;28;20516;-77
2024/01/08 12:27:26;;;;;;;5.63;3.70;;;1.70;99.90;;;;;;5024147;28;20014;-73
2024/01/08 12:29:55;;;;;;;5.47;3.22;;;1.60;99.90;;;;;;5016622;28;20037;-78
2024/01/08 12:32:21;;;;;;;4.57;3.78;;;1.60;99.90;;;;;;5040549;28;20101;-80
2024/01/08 12:34:47;;;;;;;4.53;3.28;;;1.50;99.90;;;;;;5037850;28;20199;-74
2024/01/08 12:37:17;;;;;;;6.10;3.65;;;1.50;99.90;;;;;;5032678;28;20597;-76
2024/01/08 12:39:46;;;;;;;6.97;3.45;;;1.50;99.90;;;;;;5032560;28;20036;-76
2024/01/08 12:42:17;;;;;;;5.03;4.00;;;1.60;99.90;;;;;;5035367;28;20500;-76